Flight Track Log - Related Links

Times and Time Zones

All times are in EDT time to prevent confusion due to time zone crossing. See the LBQ792 flight status page for this flight to view local times or setup timezone preferences in your user account.

Time Position Orientation Groundspeed Altitude Reporting Facility
EDT Latitude Longitude Course Direction KTS MPH feet Rate Location/Type
Tue 02:26:45 AM 39.2167 -76.6000 38° Northeast 146 168 3,000  Level Potomac TRACON
Tue 02:27:45 AM 39.2333 -76.5667 57° Northeast 152 175 4,800 1,850 Climbing Potomac TRACON
Tue 02:28:45 AM 39.2667 -76.5333 38° Northeast 156 180 6,700 1,100 Climbing Potomac TRACON
Tue 02:29:45 AM 39.3000 -76.4833 49° Northeast 210 242 7,000 150 Climbing Potomac TRACON
Tue 02:30:45 AM 39.3500 -76.4167 46° Northeast 237 273 7,000  Level Potomac TRACON
Tue 02:31:00 AM 39.3541 -76.4860 34° Northeast  Level FlightAware Approximate
Tue 02:31:45 AM 39.4000 -76.3500 46° Northeast 241 277 7,000  Level Potomac TRACON
Tue 02:32:45 AM 39.4333 -76.3167 38° Northeast 244 281 7,000  Level Potomac TRACON
Tue 02:33:45 AM 39.4833 -76.2500 46° Northeast 244 281 7,000 33 Level Potomac TRACON
Tue 02:35:49 AM 39.5833 -76.1167 46° Northeast 240 276 7,100 33 Climbing Philadelphia TRACON
Tue 02:36:49 AM 39.6333 -76.0500 46° Northeast 242 278 7,100  Level Philadelphia TRACON
Tue 02:37:49 AM 39.6833 -75.9833 46° Northeast 240 276 7,100  Level Philadelphia TRACON
Tue 02:38:49 AM 39.7333 -75.9167 46° Northeast 242 278 7,100  Level Philadelphia TRACON
Tue 02:39:49 AM 39.7667 -75.8667 49° Northeast 239 275 7,100 -50 Level Philadelphia TRACON
Tue 02:40:49 AM 39.8167 -75.8000 46° Northeast 238 274 7,000 -450 Descending Philadelphia TRACON
Tue 02:41:49 AM 39.8833 -75.7833 11° North 280 322 6,200 -950 Descending Philadelphia TRACON
Tue 02:42:49 AM 39.9667 -75.7667 North 258 297 5,100 -1,150 Descending Philadelphia TRACON
Tue 02:43:49 AM 40.0333 -75.7667 360° North 241 277 3,900 -1,000 Descending Philadelphia TRACON
Tue 02:44:49 AM 40.0667 -75.7333 37° Northeast 199 229 3,100 -400 Descending Philadelphia TRACON
Tue 02:45:49 AM 40.0833 -75.6667 72° East 181 208 3,100  Level Philadelphia TRACON
Tue 02:46:49 AM 40.0667 -75.6833 217° Southwest 210 242 3,100  Level Philadelphia TRACON
Tue 02:47:49 AM 40.1000 -75.7333 311° West 203 234 3,100 -100 Level Philadelphia TRACON
Tue 02:48:49 AM 40.1500 -75.7667 333° Northwest 219 252 2,900 -250 Descending Philadelphia TRACON
Tue 02:49:49 AM 40.2167 -75.7833 349° North 197 227 2,600 -300 Descending Philadelphia TRACON
Tue 02:50:49 AM 40.2167 -75.7333 90° East 145 167 2,300 -150 Descending Philadelphia TRACON
Tue 02:51:49 AM 40.2333 -75.6833 66° East 109 125 2,300 -250 Level Philadelphia TRACON
Tue 02:52:49 AM 40.2333 -75.6333 90° East 124 143 1,800 -600 Descending Philadelphia TRACON
Tue 02:53:49 AM 40.2333 -75.6000 90° East 121 139 1,100 100 Descending Philadelphia TRACON
Tue 02:54:49 AM 40.2500 -75.5667 57° Northeast 105 121 2,000 1,050 Climbing Philadelphia TRACON
Tue 02:55:49 AM 40.2500 -75.5167 90° East 124 143 3,200 1,050 Climbing Philadelphia TRACON
Tue 02:56:49 AM 40.2333 -75.5000 143° Southeast 159 183 4,100 900 Climbing Philadelphia TRACON

Login

Don't have an account? Register now (free) for customized features, flight alerts, and more!